Time;durP1;ratioP1;P1;durP2;ratioP2;P2;SDS_P1;SDS_P2;PMS_P1;PMS_P2;Temp;Humidity;BMP_temperature;BMP_pressure;BME280_temperature;BME280_humidity;BME280_pressure;Samples;Min_cycle;Max_cycle;Signal;HPM_P1;HPM_P2
2021/12/31 00:00:26;;;;;;;12.27;2.70;;;13.70;99.90;;;;;;5052411;28;20033;-68
2021/12/31 00:02:51;;;;;;;14.98;3.10;;;13.70;99.90;;;;;;5042247;28;20031;-68
2021/12/31 00:05:17;;;;;;;6.80;2.30;;;13.70;99.90;;;;;;5046539;28;20036;-68
2021/12/31 00:07:45;;;;;;;18.83;3.40;;;13.70;99.80;;;;;;5040557;28;20025;-68
2021/12/31 00:10:11;;;;;;;15.18;2.35;;;13.80;99.80;;;;;;5053670;28;20033;-68
2021/12/31 00:12:37;;;;;;;15.35;3.38;;;13.80;99.80;;;;;;5033554;28;20033;-68
2021/12/31 00:15:03;;;;;;;18.85;3.63;;;13.80;99.80;;;;;;5047128;28;20040;-67
2021/12/31 00:17:29;;;;;;;12.73;2.65;;;13.70;99.80;;;;;;5041734;28;20430;-67
2021/12/31 00:20:03;;;;;;;22.90;2.92;;;13.70;99.80;;;;;;5038237;28;20112;-67
2021/12/31 00:24:55;;;;;;;16.05;2.78;;;13.70;99.90;;;;;;5040267;28;20078;-68
2021/12/31 00:27:20;;;;;;;11.68;2.58;;;13.70;99.90;;;;;;5043304;28;20029;-68
2021/12/31 00:29:46;;;;;;;11.20;2.45;;;13.70;99.90;;;;;;5032156;28;20034;-68
2021/12/31 00:32:12;;;;;;;15.48;3.20;;;13.70;99.90;;;;;;5043832;28;20029;-67
2021/12/31 00:34:38;;;;;;;13.95;3.20;;;13.70;99.90;;;;;;5052476;28;20464;-68
2021/12/31 00:37:04;;;;;;;12.20;2.70;;;13.70;99.90;;;;;;5053524;28;20036;-68
2021/12/31 00:39:30;;;;;;;11.75;3.58;;;13.70;99.80;;;;;;5036013;28;20033;-68
2021/12/31 00:41:56;;;;;;;9.85;1.98;;;13.70;99.80;;;;;;5049338;28;20436;-68
2021/12/31 00:44:21;;;;;;;13.10;2.40;;;13.70;99.80;;;;;;5053233;28;20071;-68
2021/12/31 00:46:47;;;;;;;14.32;2.72;;;13.70;99.70;;;;;;5053352;28;20025;-68
2021/12/31 00:49:14;;;;;;;11.25;2.50;;;13.80;99.60;;;;;;5052532;28;20476;-68
2021/12/31 00:51:40;;;;;;;9.90;2.65;;;13.80;99.60;;;;;;5041400;28;20036;-68
2021/12/31 00:54:05;;;;;;;12.88;3.13;;;13.70;99.60;;;;;;5045748;28;20067;-68
2021/12/31 00:56:31;;;;;;;9.95;2.53;;;13.80;99.60;;;;;;5045627;28;20074;-67
2021/12/31 00:58:57;;;;;;;14.85;2.75;;;13.80;99.50;;;;;;5046829;28;20485;-67
2021/12/31 01:01:24;;;;;;;10.95;2.90;;;13.70;99.50;;;;;;5045324;28;20025;-68
2021/12/31 01:03:50;;;;;;;9.23;2.55;;;13.70;99.50;;;;;;5038738;28;20484;-67
2021/12/31 01:06:16;;;;;;;16.27;2.70;;;13.70;99.50;;;;;;5045301;28;20025;-67
2021/12/31 01:08:42;;;;;;;5.97;1.95;;;13.70;99.40;;;;;;5046739;28;20041;-67
2021/12/31 01:11:08;;;;;;;10.65;3.10;;;13.70;99.40;;;;;;5053104;28;20021;-68
2021/12/31 01:13:47;;;;;;;12.00;2.22;;;13.70;99.30;;;;;;5050924;28;20037;-68
2021/12/31 01:16:13;;;;;;;8.68;2.60;;;13.70;99.30;;;;;;5043186;28;20166;-67
2021/12/31 01:21:22;;;;;;;11.40;2.08;;;13.70;99.40;;;;;;5045280;28;20032;-67
2021/12/31 01:23:49;;;;;;;12.75;2.88;;;13.70;99.40;;;;;;5038572;28;20052;-68
2021/12/31 01:26:15;;;;;;;9.57;2.08;;;13.60;99.40;;;;;;5040091;28;20525;-68
2021/12/31 01:28:45;;;;;;;10.80;3.15;;;13.60;99.40;;;;;;5044930;28;20171;-67
2021/12/31 01:31:11;;;;;;;10.23;2.60;;;13.70;99.40;;;;;;5047026;28;20397;-67
2021/12/31 01:33:37;;;;;;;11.15;2.50;;;13.60;99.40;;;;;;5044052;28;20381;-68
2021/12/31 01:36:05;;;;;;;10.63;2.58;;;13.60;99.40;;;;;;5032419;28;20033;-68
2021/12/31 01:38:30;;;;;;;8.68;2.22;;;13.60;99.40;;;;;;5032146;28;20061;-67
2021/12/31 01:40:56;;;;;;;9.93;2.80;;;13.60;99.40;;;;;;5048170;28;20095;-67
2021/12/31 01:43:22;;;;;;;8.32;2.38;;;13.60;99.40;;;;;;5051922;28;20072;-68
2021/12/31 01:45:54;;;;;;;10.98;2.42;;;13.60;99.40;;;;;;5052049;28;20036;-67
2021/12/31 01:48:27;;;;;;;12.43;3.00;;;13.60;99.40;;;;;;5052588;28;20365;-68
2021/12/31 01:50:54;;;;;;;9.70;2.90;;;13.70;99.50;;;;;;5048075;28;20033;-68
2021/12/31 01:53:26;;;;;;;9.05;2.50;;;13.60;99.40;;;;;;5031995;28;20119;-68
2021/12/31 01:55:56;;;;;;;11.27;3.05;;;13.60;99.50;;;;;;5034622;28;20079;-67
2021/12/31 01:58:24;;;;;;;21.55;3.80;;;13.50;99.50;;;;;;5031083;28;20038;-68
2021/12/31 02:00:50;;;;;;;10.73;3.35;;;13.50;99.60;;;;;;5034233;28;20021;-67
2021/12/31 02:03:21;;;;;;;17.75;3.70;;;13.60;99.60;;;;;;5031265;28;20412;-67
2021/12/31 02:05:47;;;;;;;11.13;2.80;;;13.50;99.60;;;;;;5030871;28;20030;-68
2021/12/31 02:08:13;;;;;;;14.95;2.90;;;13.50;99.60;;;;;;5034414;28;20426;-67
2021/12/31 02:10:39;;;;;;;9.13;3.42;;;13.50;99.70;;;;;;5031621;28;20109;-67
2021/12/31 02:13:06;;;;;;;11.95;2.92;;;13.50;99.60;;;;;;5030815;28;20080;-67
2021/12/31 02:15:32;;;;;;;10.13;2.83;;;13.50;99.60;;;;;;5034240;28;20029;-68
2021/12/31 02:17:59;;;;;;;18.38;3.50;;;13.50;99.80;;;;;;5034089;28;20033;-68
2021/12/31 02:20:35;;;;;;;11.60;2.80;;;13.50;99.90;;;;;;5030995;28;20033;-68
2021/12/31 02:23:08;;;;;;;13.75;3.05;;;13.50;99.80;;;;;;5034617;28;20025;-67
2021/12/31 02:25:36;;;;;;;16.77;3.30;;;13.50;99.80;;;;;;5044549;28;20037;-68
2021/12/31 02:28:02;;;;;;;8.27;2.67;;;13.60;99.70;;;;;;5040016;28;20758;-68
2021/12/31 02:30:29;;;;;;;14.20;2.90;;;13.60;99.70;;;;;;5039021;28;20028;-68
2021/12/31 02:32:55;;;;;;;13.93;2.35;;;13.60;99.70;;;;;;5040301;28;20040;-68
2021/12/31 02:35:21;;;;;;;12.02;3.17;;;13.60;99.70;;;;;;5047490;28;20064;-68
2021/12/31 02:37:47;;;;;;;14.10;2.60;;;13.60;99.70;;;;;;5047485;28;20041;-67
2021/12/31 02:40:15;;;;;;;11.55;2.58;;;13.70;99.70;;;;;;5048801;28;20075;-68
2021/12/31 02:42:41;;;;;;;14.18;2.45;;;13.60;99.60;;;;;;5045151;28;20033;-67
2021/12/31 02:45:08;;;;;;;10.85;1.98;;;13.60;99.60;;;;;;5055491;28;20037;-68
2021/12/31 02:47:35;;;;;;;10.05;2.65;;;13.60;99.60;;;;;;5051042;28;20064;-67
2021/12/31 02:50:04;;;;;;;9.02;2.42;;;13.70;99.70;;;;;;5055481;28;20123;-68
2021/12/31 02:52:29;;;;;;;7.28;2.25;;;13.60;99.60;;;;;;5044870;28;20116;-68
2021/12/31 02:54:57;;;;;;;12.90;3.28;;;13.70;99.70;;;;;;5047744;28;20104;-67
2021/12/31 02:57:23;;;;;;;8.55;2.38;;;13.70;99.60;;;;;;5035360;28;20077;-67
2021/12/31 02:59:49;;;;;;;11.65;3.15;;;13.70;99.60;;;;;;5035335;28;20123;-68
2021/12/31 03:02:23;;;;;;;13.98;2.40;;;13.70;99.50;;;;;;5046653;28;20032;-67
2021/12/31 03:04:51;;;;;;;7.35;2.42;;;13.70;99.60;;;;;;5055563;28;20104;-67
2021/12/31 03:07:18;;;;;;;11.77;3.05;;;13.70;99.60;;;;;;5055290;28;20098;-67
2021/12/31 03:09:49;;;;;;;11.25;2.58;;;13.80;99.50;;;;;;5045489;28;20097;-68
2021/12/31 03:12:15;;;;;;;15.00;2.50;;;13.80;99.50;;;;;;5040187;28;20033;-67
2021/12/31 03:14:43;;;;;;;8.40;2.60;;;13.80;99.60;;;;;;5043248;28;20037;-68
2021/12/31 03:17:10;;;;;;;17.25;2.78;;;13.80;99.50;;;;;;5048433;28;20030;-68
2021/12/31 03:19:36;;;;;;;11.38;3.05;;;13.70;99.50;;;;;;5035261;28;20029;-68
2021/12/31 03:22:03;;;;;;;14.15;2.72;;;13.70;99.60;;;;;;5034270;28;20535;-67
2021/12/31 03:24:28;;;;;;;8.32;2.90;;;13.70;99.70;;;;;;5047592;28;20037;-67
2021/12/31 03:26:57;;;;;;;5.07;2.00;;;13.70;99.70;;;;;;5053787;28;20060;-68
2021/12/31 03:29:23;;;;;;;11.32;2.20;;;13.70;99.70;;;;;;5053789;28;20076;-68
2021/12/31 03:31:49;;;;;;;9.43;2.03;;;13.70;99.70;;;;;;5048047;28;20033;-67
2021/12/31 03:34:14;;;;;;;6.90;2.58;;;13.70;99.70;;;;;;5048010;28;20107;-67
2021/12/31 03:36:42;;;;;;;7.20;2.13;;;13.70;99.60;;;;;;5034359;28;20021;-67
2021/12/31 03:39:08;;;;;;;5.50;1.75;;;13.70;99.70;;;;;;5042385;28;20024;-68
2021/12/31 03:41:34;;;;;;;8.55;2.42;;;13.70;99.80;;;;;;5042030;28;20033;-67
2021/12/31 03:44:00;;;;;;;8.13;2.35;;;13.60;99.80;;;;;;5038777;28;20032;-67
2021/12/31 03:46:26;;;;;;;10.82;3.10;;;13.60;99.90;;;;;;5035758;28;20036;-68
2021/12/31 03:48:51;;;;;;;10.75;3.03;;;13.60;99.90;;;;;;5049418;28;20493;-67
2021/12/31 03:51:17;;;;;;;10.77;2.47;;;13.70;99.90;;;;;;5043447;28;20029;-68
2021/12/31 03:53:43;;;;;;;9.68;2.40;;;13.70;99.90;;;;;;5041815;28;20576;-67
2021/12/31 03:56:08;;;;;;;11.30;2.90;;;13.70;99.80;;;;;;5041381;28;20037;-67
2021/12/31 03:58:34;;;;;;;9.07;2.60;;;13.70;99.70;;;;;;5039833;28;20079;-68
2021/12/31 04:01:00;;;;;;;10.07;2.95;;;13.70;99.70;;;;;;5034128;28;20080;-67
2021/12/31 04:03:25;;;;;;;9.85;2.70;;;13.70;99.70;;;;;;5045167;28;20056;-67
2021/12/31 04:05:51;;;;;;;12.77;2.60;;;13.70;99.60;;;;;;5048854;28;20381;-67
2021/12/31 04:08:17;;;;;;;11.18;2.55;;;13.80;99.60;;;;;;5034817;28;20045;-67
2021/12/31 04:10:43;;;;;;;6.38;2.67;;;13.80;99.50;;;;;;5038835;28;20028;-68
2021/12/31 04:13:09;;;;;;;8.98;2.90;;;13.80;99.50;;;;;;5053265;28;20048;-67
2021/12/31 04:15:35;;;;;;;11.43;2.92;;;13.80;99.50;;;;;;5053956;28;20036;-67
2021/12/31 04:18:01;;;;;;;14.13;3.33;;;13.80;99.50;;;;;;5053433;28;20116;-67
2021/12/31 04:20:36;;;;;;;7.40;2.55;;;13.80;99.50;;;;;;5053618;28;20037;-67
2021/12/31 04:23:14;;;;;;;5.15;2.13;;;13.80;99.50;;;;;;5040291;28;20485;-67
2021/12/31 04:25:41;;;;;;;8.35;2.42;;;13.80;99.50;;;;;;5044804;28;20045;-67
2021/12/31 04:28:08;;;;;;;6.22;2.47;;;13.80;99.50;;;;;;5037313;28;20510;-67
2021/12/31 04:30:34;;;;;;;5.03;2.05;;;13.80;99.50;;;;;;5053989;28;20036;-67
2021/12/31 04:33:01;;;;;;;8.90;2.55;;;13.80;99.50;;;;;;5050029;28;20142;-67
2021/12/31 04:35:26;;;;;;;4.97;1.83;;;13.80;99.50;;;;;;5044445;28;20040;-67
2021/12/31 04:37:52;;;;;;;6.60;1.83;;;13.80;99.50;;;;;;5036858;28;20113;-67
2021/12/31 04:40:18;;;;;;;8.95;2.60;;;13.70;99.50;;;;;;5043847;28;20045;-67
2021/12/31 04:42:44;;;;;;;6.93;1.88;;;13.70;99.50;;;;;;5049086;28;20120;-67
2021/12/31 04:45:11;;;;;;;11.73;2.67;;;13.70;99.60;;;;;;5033685;28;20025;-67
2021/12/31 04:47:40;;;;;;;6.90;2.42;;;13.70;99.60;;;;;;5032497;28;20029;-67
2021/12/31 04:50:09;;;;;;;8.50;2.38;;;13.70;99.70;;;;;;5045537;28;20051;-67
2021/12/31 04:52:35;;;;;;;9.18;2.65;;;13.70;99.70;;;;;;5052978;28;20792;-67
2021/12/31 04:55:03;;;;;;;10.48;3.00;;;13.70;99.70;;;;;;5052371;28;20048;-68
2021/12/31 04:57:32;;;;;;;7.18;2.03;;;13.70;99.80;;;;;;5032687;28;20444;-67
2021/12/31 04:59:58;;;;;;;5.90;2.00;;;13.70;99.90;;;;;;5047226;28;20064;-67
2021/12/31 05:02:24;;;;;;;5.85;2.05;;;13.70;99.80;;;;;;5052153;28;20056;-67
2021/12/31 05:04:49;;;;;;;7.30;2.47;;;13.70;99.80;;;;;;5044043;28;20033;-67
2021/12/31 05:07:15;;;;;;;20.42;2.45;;;13.80;99.80;;;;;;5048066;28;21195;-67
2021/12/31 05:09:41;;;;;;;7.63;2.33;;;13.80;99.80;;;;;;5052963;28;20468;-67
2021/12/31 05:12:09;;;;;;;7.25;2.00;;;13.70;99.80;;;;;;5052857;28;20106;-67
2021/12/31 05:14:35;;;;;;;6.07;2.30;;;13.70;99.80;;;;;;5052360;28;20077;-67
2021/12/31 05:17:00;;;;;;;4.90;2.15;;;13.70;99.80;;;;;;5048584;28;20116;-67
2021/12/31 05:19:26;;;;;;;8.38;2.42;;;13.70;99.90;;;;;;5043333;28;20040;-67
2021/12/31 05:21:52;;;;;;;9.93;2.85;;;13.70;99.90;;;;;;5034352;28;20029;-67
2021/12/31 05:24:18;;;;;;;8.18;2.47;;;13.70;99.90;;;;;;5032788;28;20543;-67
2021/12/31 05:26:44;;;;;;;7.32;2.33;;;13.70;99.90;;;;;;5032702;28;20117;-67
2021/12/31 05:29:10;;;;;;;6.05;2.03;;;13.60;99.90;;;;;;5031998;28;20477;-67
2021/12/31 05:31:35;;;;;;;4.05;1.75;;;13.60;99.90;;;;;;5050756;28;20032;-67
2021/12/31 05:34:01;;;;;;;8.30;2.30;;;13.70;99.90;;;;;;5052736;28;20033;-67
2021/12/31 05:36:27;;;;;;;9.82;2.10;;;13.70;99.90;;;;;;5038363;28;20033;-67
2021/12/31 05:38:53;;;;;;;7.30;2.13;;;13.80;99.90;;;;;;5052782;28;20040;-67
2021/12/31 05:41:18;;;;;;;3.30;2.10;;;13.80;99.80;;;;;;5052481;28;20388;-67
2021/12/31 05:43:44;;;;;;;7.10;2.15;;;13.90;99.70;;;;;;5051612;28;20041;-67
2021/12/31 05:46:10;;;;;;;6.05;2.53;;;13.90;99.60;;;;;;5059148;28;20030;-67
2021/12/31 05:48:35;;;;;;;7.85;2.25;;;13.90;99.50;;;;;;5032500;28;20053;-67
2021/12/31 05:51:03;;;;;;;5.68;2.25;;;13.90;99.50;;;;;;5031717;28;20032;-67
2021/12/31 05:53:29;;;;;;;6.90;2.30;;;13.90;99.50;;;;;;5045639;28;20066;-67
2021/12/31 05:55:58;;;;;;;3.38;1.90;;;13.90;99.50;;;;;;5040146;28;20108;-66
2021/12/31 05:58:25;;;;;;;5.07;1.65;;;13.90;99.50;;;;;;5048919;28;20047;-67
2021/12/31 06:00:51;;;;;;;8.98;2.38;;;13.80;99.80;;;;;;5040809;28;20083;-67
2021/12/31 06:03:16;;;;;;;7.25;2.22;;;13.90;99.50;;;;;;5046282;28;20068;-67
2021/12/31 06:05:42;;;;;;;7.90;2.28;;;13.80;99.50;;;;;;5038023;28;20100;-67
2021/12/31 06:08:07;;;;;;;6.55;2.00;;;13.90;99.50;;;;;;5050378;28;20029;-67
2021/12/31 06:10:41;;;;;;;8.02;2.00;;;13.90;99.40;;;;;;5038512;28;20037;-67
2021/12/31 06:13:07;;;;;;;3.72;1.80;;;13.90;99.40;;;;;;5036470;28;20488;-67
2021/12/31 06:15:34;;;;;;;4.53;2.10;;;13.80;99.40;;;;;;5049339;28;20034;-67
2021/12/31 06:17:59;;;;;;;5.70;1.98;;;13.80;99.40;;;;;;5046483;28;20035;-67
2021/12/31 06:20:28;;;;;;;6.07;1.95;;;13.80;99.40;;;;;;5041976;28;20029;-67
2021/12/31 06:22:57;;;;;;;4.85;1.65;;;13.90;99.40;;;;;;5056322;28;20124;-67
2021/12/31 06:25:24;;;;;;;6.63;2.05;;;13.90;99.30;;;;;;5055443;28;20135;-67
2021/12/31 06:27:50;;;;;;;5.78;1.90;;;13.90;99.20;;;;;;5055028;28;20453;-67
2021/12/31 06:30:16;;;;;;;4.47;2.10;;;13.90;99.20;;;;;;5043429;28;20136;-67
2021/12/31 06:32:41;;;;;;;4.72;2.00;;;13.90;99.20;;;;;;5054945;28;20033;-67
2021/12/31 06:35:07;;;;;;;3.17;1.75;;;13.90;99.30;;;;;;5056010;28;20025;-67
2021/12/31 06:37:34;;;;;;;5.95;2.17;;;13.80;99.30;;;;;;5041757;28;20124;-67
2021/12/31 06:40:05;;;;;;;3.90;1.77;;;13.90;99.30;;;;;;5035248;28;20445;-67
2021/12/31 06:42:36;;;;;;;4.32;1.85;;;13.80;99.20;;;;;;5051575;28;20033;-68
2021/12/31 06:45:03;;;;;;;3.75;1.60;;;13.80;99.20;;;;;;5055668;28;20025;-68
2021/12/31 06:47:29;;;;;;;2.90;2.00;;;13.90;99.20;;;;;;5037623;28;20029;-67
2021/12/31 06:49:54;;;;;;;3.75;1.70;;;13.90;99.10;;;;;;5046671;28;20550;-67
2021/12/31 06:52:20;;;;;;;4.05;1.88;;;13.90;99.20;;;;;;5042933;28;20036;-67
2021/12/31 06:54:47;;;;;;;4.68;2.20;;;13.80;99.20;;;;;;5043659;28;20029;-67
2021/12/31 06:57:18;;;;;;;4.43;2.15;;;13.90;99.20;;;;;;5040268;28;20052;-67
2021/12/31 06:59:44;;;;;;;5.50;2.22;;;13.90;99.10;;;;;;5054785;28;20033;-67
2021/12/31 07:02:10;;;;;;;5.18;2.00;;;13.90;99.10;;;;;;5054754;28;20067;-68
2021/12/31 07:04:35;;;;;;;6.03;2.08;;;13.90;99.00;;;;;;5035678;28;20029;-67
2021/12/31 07:07:05;;;;;;;4.57;2.28;;;13.90;98.90;;;;;;5035283;28;20087;-67
2021/12/31 07:09:30;;;;;;;3.90;1.70;;;13.90;98.90;;;;;;5035321;28;20478;-67
2021/12/31 07:11:56;;;;;;;3.78;1.85;;;13.90;98.90;;;;;;5035099;28;20030;-67
2021/12/31 07:14:22;;;;;;;9.20;2.70;;;14.00;98.90;;;;;;5034540;28;20132;-67
2021/12/31 07:16:50;;;;;;;7.28;1.95;;;14.00;98.80;;;;;;5048104;28;20384;-68
2021/12/31 07:19:19;;;;;;;5.40;2.17;;;13.90;98.80;;;;;;5044463;28;20439;-68
2021/12/31 07:21:45;;;;;;;4.60;2.20;;;13.90;98.80;;;;;;5049882;28;20487;-68
2021/12/31 07:24:10;;;;;;;3.50;2.00;;;13.90;98.80;;;;;;5035134;28;20057;-68
2021/12/31 07:26:39;;;;;;;3.75;1.70;;;13.90;98.80;;;;;;5051677;28;20025;-68
2021/12/31 07:29:04;;;;;;;2.22;1.67;;;13.90;98.80;;;;;;5043873;28;20052;-68
2021/12/31 07:31:30;;;;;;;3.25;1.73;;;13.90;98.80;;;;;;5035717;28;20104;-67
2021/12/31 07:33:55;;;;;;;2.47;1.45;;;13.90;98.70;;;;;;5045416;28;20025;-67
2021/12/31 07:36:21;;;;;;;2.97;2.00;;;14.00;98.70;;;;;;5036444;28;20037;-68
2021/12/31 07:38:55;;;;;;;2.45;1.60;;;14.00;98.60;;;;;;5034316;28;20037;-67
2021/12/31 07:41:21;;;;;;;4.93;1.58;;;14.00;98.50;;;;;;5034548;28;20083;-68
2021/12/31 07:43:46;;;;;;;5.45;2.00;;;14.00;98.50;;;;;;5033776;28;20025;-68
2021/12/31 07:46:13;;;;;;;5.13;2.10;;;14.00;98.40;;;;;;5037103;28;20064;-70
2021/12/31 07:48:39;;;;;;;5.35;1.92;;;14.00;98.40;;;;;;5054347;28;20542;-68
2021/12/31 07:51:04;;;;;;;6.00;1.90;;;14.00;98.30;;;;;;5037427;28;20033;-67
2021/12/31 07:53:30;;;;;;;3.15;1.60;;;14.00;98.30;;;;;;5043774;28;20033;-67
2021/12/31 07:55:55;;;;;;;4.20;1.73;;;13.90;98.40;;;;;;5053227;28;20045;-67
2021/12/31 07:58:21;;;;;;;5.38;2.13;;;13.90;98.40;;;;;;5054267;28;20037;-67
2021/12/31 08:00:47;;;;;;;4.10;1.75;;;13.90;98.40;;;;;;5041046;28;20037;-67
2021/12/31 08:03:15;;;;;;;5.53;1.83;;;13.90;98.40;;;;;;5046804;28;20040;-67
2021/12/31 08:05:40;;;;;;;1.92;1.35;;;13.90;98.40;;;;;;5048367;28;20048;-69
2021/12/31 08:08:06;;;;;;;3.33;1.88;;;13.90;98.40;;;;;;5049514;28;20029;-68
2021/12/31 08:10:35;;;;;;;5.03;2.30;;;13.90;98.30;;;;;;5048243;28;20108;-67
2021/12/31 08:13:02;;;;;;;5.22;2.55;;;13.90;98.30;;;;;;5039917;28;20030;-67
2021/12/31 08:15:28;;;;;;;6.07;1.50;;;13.90;98.30;;;;;;5035762;28;20020;-67
2021/12/31 08:17:54;;;;;;;5.90;2.20;;;13.90;98.30;;;;;;5035400;28;20044;-67
2021/12/31 08:20:20;;;;;;;7.05;2.00;;;13.90;98.30;;;;;;5041548;28;20037;-67
2021/12/31 08:22:46;;;;;;;4.50;1.70;;;13.90;98.30;;;;;;5041074;28;20037;-67
2021/12/31 08:25:12;;;;;;;4.25;2.38;;;13.90;98.30;;;;;;5044901;28;20033;-67
2021/12/31 08:27:37;;;;;;;3.22;1.88;;;13.80;98.30;;;;;;5044407;28;20056;-68
2021/12/31 08:30:04;;;;;;;4.80;2.22;;;13.80;98.40;;;;;;5045165;28;20490;-68
2021/12/31 08:32:30;;;;;;;6.45;1.90;;;13.80;98.40;;;;;;5045437;28;20031;-68
2021/12/31 08:34:56;;;;;;;6.03;1.80;;;13.80;98.30;;;;;;5032665;28;20029;-68
2021/12/31 08:37:21;;;;;;;7.13;2.13;;;13.80;98.40;;;;;;5046958;28;20029;-68
2021/12/31 08:39:47;;;;;;;8.25;2.17;;;13.80;98.40;;;;;;5053357;28;20525;-68
2021/12/31 08:42:13;;;;;;;5.10;1.70;;;13.80;98.40;;;;;;5053259;28;20562;-68
2021/12/31 08:44:38;;;;;;;4.13;1.70;;;13.80;98.40;;;;;;5046514;28;20029;-68
2021/12/31 08:47:04;;;;;;;4.30;1.88;;;13.80;98.40;;;;;;5033258;28;20116;-70
2021/12/31 08:49:30;;;;;;;3.05;1.67;;;13.80;98.40;;;;;;5043786;28;20061;-66
2021/12/31 08:51:55;;;;;;;6.25;2.35;;;13.80;98.40;;;;;;5051374;28;20033;-67
2021/12/31 08:54:21;;;;;;;6.22;1.92;;;13.80;98.50;;;;;;5040688;28;20396;-66
2021/12/31 08:56:47;;;;;;;3.53;1.98;;;13.70;98.60;;;;;;5043275;28;20049;-69
2021/12/31 08:59:15;;;;;;;5.15;2.15;;;13.70;98.60;;;;;;5039391;28;20434;-70
2021/12/31 09:01:41;;;;;;;2.88;1.70;;;13.70;98.70;;;;;;5038899;28;20589;-66
2021/12/31 09:04:06;;;;;;;3.15;2.00;;;13.70;98.70;;;;;;5043408;28;20026;-67
2021/12/31 09:06:32;;;;;;;9.02;2.47;;;13.70;98.70;;;;;;5040542;28;20021;-72
2021/12/31 09:08:58;;;;;;;5.07;1.63;;;13.70;98.70;;;;;;5032762;28;20045;-65
2021/12/31 09:11:23;;;;;;;4.38;2.15;;;13.80;98.70;;;;;;5032887;28;20025;-68
2021/12/31 09:13:51;;;;;;;4.15;2.10;;;13.80;98.60;;;;;;5038719;28;20021;-66
2021/12/31 09:16:17;;;;;;;2.40;1.52;;;13.80;98.60;;;;;;5038917;28;20029;-69
2021/12/31 09:18:43;;;;;;;6.57;2.15;;;13.80;98.60;;;;;;5032845;28;20036;-66
2021/12/31 09:21:08;;;;;;;7.07;2.80;;;13.80;98.50;;;;;;5034383;28;20029;-67
2021/12/31 09:23:34;;;;;;;7.38;2.60;;;13.80;98.60;;;;;;5031569;28;20406;-67
2021/12/31 09:26:01;;;;;;;6.10;2.35;;;13.70;98.70;;;;;;5034502;28;20136;-66
2021/12/31 09:28:26;;;;;;;6.72;2.63;;;13.70;99.00;;;;;;5033735;28;20167;-66
2021/12/31 09:30:52;;;;;;;4.95;2.22;;;13.70;98.70;;;;;;5037008;28;20487;-74
2021/12/31 09:33:18;;;;;;;4.00;2.40;;;13.70;98.80;;;;;;5031814;28;20120;-68
2021/12/31 09:35:43;;;;;;;7.80;2.13;;;13.70;98.80;;;;;;5042003;28;20148;-66
2021/12/31 09:38:09;;;;;;;8.48;2.67;;;13.60;98.80;;;;;;5035126;28;20034;-78
2021/12/31 09:40:41;;;;;;;7.15;2.50;;;13.60;98.90;;;;;;5031965;28;20045;-66
2021/12/31 09:43:09;;;;;;;6.60;2.50;;;13.60;98.90;;;;;;5036463;28;20359;-67
2021/12/31 09:45:36;;;;;;;5.53;2.50;;;13.60;99.00;;;;;;5033693;28;20047;-66
2021/12/31 09:48:09;;;;;;;6.88;2.92;;;13.60;98.90;;;;;;5030666;28;20029;-66
2021/12/31 09:50:38;;;;;;;11.02;2.67;;;13.60;98.90;;;;;;5034166;28;20403;-66
2021/12/31 09:53:05;;;;;;;5.35;2.20;;;13.60;98.90;;;;;;5033089;28;20219;-71
2021/12/31 09:55:42;;;;;;;5.43;2.60;;;13.60;99.00;;;;;;5031001;28;20029;-67
2021/12/31 09:58:10;;;;;;;5.55;2.97;;;13.60;99.20;;;;;;5031558;28;20045;-69
2021/12/31 10:00:37;;;;;;;7.75;2.42;;;13.60;98.90;;;;;;5036344;28;20048;-66
2021/12/31 10:03:28;;;;;;;6.32;2.78;;;13.60;99.20;;;;;;5032841;28;20118;-67
2021/12/31 10:05:58;;;;;;;7.30;2.20;;;13.60;99.00;;;;;;5031887;28;20022;-69
2021/12/31 10:08:29;;;;;;;7.65;2.70;;;13.60;99.10;;;;;;5033245;28;20056;-67
2021/12/31 10:11:17;;;;;;;6.13;2.63;;;13.60;99.10;;;;;;5032515;28;20036;-67
2021/12/31 10:13:47;;;;;;;5.85;2.85;;;13.60;99.20;;;;;;5033335;28;20037;-66
2021/12/31 10:16:23;;;;;;;5.13;2.20;;;13.60;99.20;;;;;;5031597;28;20120;-67
2021/12/31 10:18:49;;;;;;;10.73;2.47;;;13.60;99.30;;;;;;5036666;28;20370;-67
2021/12/31 10:21:19;;;;;;;4.38;2.15;;;13.60;99.30;;;;;;5036320;28;20028;-66
2021/12/31 10:23:46;;;;;;;7.50;2.33;;;13.60;99.30;;;;;;5031758;28;20038;-66
2021/12/31 10:26:14;;;;;;;9.10;3.10;;;13.60;99.20;;;;;;5034677;28;20129;-66
2021/12/31 10:28:54;;;;;;;9.63;2.55;;;13.60;99.20;;;;;;5031738;28;20045;-66
2021/12/31 10:31:20;;;;;;;6.93;2.60;;;13.70;99.20;;;;;;5030788;28;20541;-66
2021/12/31 10:33:48;;;;;;;6.97;2.58;;;13.60;99.20;;;;;;5032133;28;20127;-67
2021/12/31 10:36:34;;;;;;;5.55;2.20;;;13.60;99.10;;;;;;5038095;28;20040;-67
2021/12/31 10:39:13;;;;;;;3.88;2.13;;;13.70;99.20;;;;;;5035938;28;20030;-68
2021/12/31 10:41:49;;;;;;;6.68;2.40;;;13.70;99.10;;;;;;5030503;28;20465;-67
2021/12/31 10:44:14;;;;;;;10.68;2.50;;;13.70;99.10;;;;;;5033218;28;20037;-67
2021/12/31 10:46:41;;;;;;;5.30;2.40;;;13.70;99.00;;;;;;5036642;28;20427;-68
2021/12/31 10:49:11;;;;;;;5.18;1.98;;;13.70;99.10;;;;;;5043339;28;20069;-68
2021/12/31 10:51:47;;;;;;;5.38;2.42;;;13.70;99.00;;;;;;5041801;28;20025;-67
2021/12/31 10:55:00;;;;;;;6.15;2.25;;;13.70;99.10;;;;;;5034731;28;20459;-67
2021/12/31 10:57:37;;;;;;;2.70;1.73;;;13.60;99.00;;;;;;5034661;28;20076;-67
2021/12/31 11:00:08;;;;;;;6.28;2.78;;;13.70;99.00;;;;;;5041234;28;20033;-67
2021/12/31 11:02:38;;;;;;;4.75;2.60;;;13.70;99.00;;;;;;5039231;28;20025;-68
2021/12/31 11:05:05;;;;;;;6.97;2.17;;;13.60;99.00;;;;;;5041170;28;20045;-77
2021/12/31 11:07:31;;;;;;;10.35;3.03;;;13.60;99.00;;;;;;5038078;28;20029;-68
2021/12/31 11:09:59;;;;;;;6.43;2.63;;;13.70;99.00;;;;;;5038917;28;20045;-67
2021/12/31 11:12:26;;;;;;;3.13;2.10;;;13.60;99.00;;;;;;5039706;28;20021;-67
2021/12/31 11:14:52;;;;;;;6.53;2.47;;;13.60;99.10;;;;;;5049766;28;20040;-67
2021/12/31 11:17:18;;;;;;;7.03;2.70;;;13.60;99.10;;;;;;5039326;28;20083;-66
2021/12/31 11:19:45;;;;;;;9.07;2.65;;;13.60;99.10;;;;;;5035688;28;20440;-67
2021/12/31 11:22:14;;;;;;;5.15;2.60;;;13.70;99.00;;;;;;5033422;28;20370;-67
2021/12/31 11:24:40;;;;;;;3.83;2.30;;;13.70;98.90;;;;;;5033615;28;20155;-66
2021/12/31 11:27:31;;;;;;;6.85;2.78;;;13.70;99.10;;;;;;5034084;28;20065;-66
2021/12/31 11:29:58;;;;;;;10.05;3.38;;;13.60;98.80;;;;;;5033503;28;20041;-67
2021/12/31 11:32:47;;;;;;;9.18;3.15;;;13.70;98.90;;;;;;5035297;28;20029;-67
2021/12/31 11:35:28;;;;;;;3.85;1.83;;;13.70;98.90;;;;;;5037729;28;20037;-68
2021/12/31 11:37:54;;;;;;;6.82;3.00;;;13.60;98.90;;;;;;5038840;28;20120;-68
2021/12/31 11:40:41;;;;;;;6.18;2.15;;;13.60;98.90;;;;;;5038871;28;20155;-67
2021/12/31 11:43:19;;;;;;;5.72;2.05;;;13.60;99.00;;;;;;5041196;28;20114;-67
2021/12/31 11:46:11;;;;;;;8.80;3.17;;;13.60;99.00;;;;;;5040075;28;20162;-67
2021/12/31 11:48:51;;;;;;;10.20;3.20;;;13.60;98.90;;;;;;5043445;28;20083;-68
2021/12/31 11:51:34;;;;;;;10.15;4.22;;;13.60;98.90;;;;;;5037769;28;20076;-67
2021/12/31 11:54:00;;;;;;;5.57;2.25;;;13.60;98.90;;;;;;5040397;28;20037;-67
2021/12/31 11:56:34;;;;;;;6.47;2.45;;;13.60;98.90;;;;;;5040301;28;20036;-67
2021/12/31 11:59:12;;;;;;;7.65;2.85;;;13.60;99.00;;;;;;5042207;28;20052;-68
2021/12/31 12:01:48;;;;;;;8.38;2.47;;;13.60;99.00;;;;;;5041319;28;20120;-67
2021/12/31 12:04:17;;;;;;;7.30;2.60;;;13.60;99.00;;;;;;5038177;28;20035;-67
2021/12/31 12:07:09;;;;;;;6.13;2.65;;;13.60;99.00;;;;;;5045911;28;20029;-68
2021/12/31 12:09:38;;;;;;;5.55;2.50;;;13.50;99.00;;;;;;5038679;28;20632;-68
2021/12/31 12:12:08;;;;;;;8.15;3.10;;;13.50;99.00;;;;;;5036847;28;20035;-67
2021/12/31 12:14:43;;;;;;;7.88;2.63;;;13.60;99.00;;;;;;5038720;28;20038;-67
2021/12/31 12:17:11;;;;;;;6.25;2.70;;;13.50;99.00;;;;;;5046643;28;20033;-67
2021/12/31 12:19:51;;;;;;;6.50;2.63;;;13.50;99.10;;;;;;5042041;28;20029;-68
2021/12/31 12:22:28;;;;;;;4.90;2.55;;;13.50;99.10;;;;;;5039248;28;20479;-68
2021/12/31 12:24:55;;;;;;;7.53;2.47;;;13.50;99.20;;;;;;5045742;28;20116;-69
2021/12/31 12:27:23;;;;;;;8.85;2.85;;;13.40;99.20;;;;;;5038694;28;20036;-69
2021/12/31 12:29:49;;;;;;;4.40;2.45;;;13.40;99.20;;;;;;5036165;28;20038;-69
2021/12/31 12:32:17;;;;;;;7.40;2.20;;;13.40;99.30;;;;;;5041157;28;20036;-68
2021/12/31 12:34:43;;;;;;;6.05;2.58;;;13.40;99.40;;;;;;5041258;28;20036;-68
2021/12/31 12:37:08;;;;;;;3.90;2.13;;;13.40;99.40;;;;;;5045713;28;20399;-68
2021/12/31 12:39:34;;;;;;;4.65;2.38;;;13.40;99.50;;;;;;5050375;28;20039;-68
2021/12/31 12:42:00;;;;;;;5.38;2.15;;;13.30;99.50;;;;;;5042885;28;20041;-69
2021/12/31 12:44:26;;;;;;;4.75;2.47;;;13.30;99.50;;;;;;5047831;28;20025;-69
2021/12/31 12:46:57;;;;;;;8.40;2.30;;;13.30;99.60;;;;;;5038157;28;20500;-68
2021/12/31 12:49:24;;;;;;;4.40;2.55;;;13.30;99.60;;;;;;5043577;28;20128;-67
2021/12/31 12:51:50;;;;;;;4.55;2.65;;;13.30;99.60;;;;;;5039239;28;20087;-67